sensor_id;sensor_type;location;lat;lon;timestamp;pressure;altitude;pressure_sealevel;temperature;humidity
23616;BME280;11985;49.404;7.734;2023-04-01T00:03:13;95774.03;;;7.29;100.00
23616;BME280;11985;49.404;7.734;2023-04-01T00:08:17;95768.19;;;7.27;100.00
23616;BME280;11985;49.404;7.734;2023-04-01T00:13:19;95767.63;;;7.25;100.00
23616;BME280;11985;49.404;7.734;2023-04-01T00:18:21;95763.19;;;7.26;100.00
23616;BME280;11985;49.404;7.734;2023-04-01T00:23:24;95759.22;;;7.23;100.00
23616;BME280;11985;49.404;7.734;2023-04-01T00:28:26;95756.78;;;7.22;100.00
23616;BME280;11985;49.404;7.734;2023-04-01T00:33:28;95757.16;;;7.25;100.00
23616;BME280;11985;49.404;7.734;2023-04-01T00:38:32;95751.91;;;7.25;100.00
23616;BME280;11985;49.404;7.734;2023-04-01T00:43:33;95757.53;;;7.29;100.00
23616;BME280;11985;49.404;7.734;2023-04-01T00:48:37;95747.84;;;7.29;100.00
23616;BME280;11985;49.404;7.734;2023-04-01T00:53:44;95754.66;;;7.30;100.00
23616;BME280;11985;49.404;7.734;2023-04-01T00:58:50;95749.44;;;7.30;100.00
23616;BME280;11985;49.404;7.734;2023-04-01T01:03:53;95740.22;;;7.28;100.00
23616;BME280;11985;49.404;7.734;2023-04-01T01:09:09;95742.47;;;7.24;100.00
23616;BME280;11985;49.404;7.734;2023-04-01T01:14:23;95753.97;;;7.23;100.00
23616;BME280;11985;49.404;7.734;2023-04-01T01:19:42;95739.72;;;7.19;100.00
23616;BME280;11985;49.404;7.734;2023-04-01T01:25:07;95745.69;;;7.08;100.00
23616;BME280;11985;49.404;7.734;2023-04-01T01:30:22;95738.00;;;6.95;100.00
23616;BME280;11985;49.404;7.734;2023-04-01T01:35:31;95744.31;;;6.87;100.00
23616;BME280;11985;49.404;7.734;2023-04-01T01:40:36;95737.13;;;6.82;100.00
23616;BME280;11985;49.404;7.734;2023-04-01T01:45:42;95739.19;;;6.80;100.00
23616;BME280;11985;49.404;7.734;2023-04-01T01:50:47;95732.91;;;6.81;100.00
23616;BME280;11985;49.404;7.734;2023-04-01T01:55:49;95731.75;;;6.77;100.00
23616;BME280;11985;49.404;7.734;2023-04-01T02:00:54;95727.19;;;6.73;100.00
23616;BME280;11985;49.404;7.734;2023-04-01T02:06:00;95731.97;;;6.76;100.00
23616;BME280;11985;49.404;7.734;2023-04-01T02:11:05;95719.13;;;6.74;100.00
23616;BME280;11985;49.404;7.734;2023-04-01T02:16:11;95722.75;;;6.73;100.00
23616;BME280;11985;49.404;7.734;2023-04-01T02:21:16;95717.53;;;6.73;100.00
23616;BME280;11985;49.404;7.734;2023-04-01T02:26:20;95707.94;;;6.67;100.00
23616;BME280;11985;49.404;7.734;2023-04-01T02:31:23;95716.44;;;6.63;100.00
23616;BME280;11985;49.404;7.734;2023-04-01T02:36:27;95714.91;;;6.55;100.00
23616;BME280;11985;49.404;7.734;2023-04-01T02:41:28;95711.28;;;6.56;100.00
23616;BME280;11985;49.404;7.734;2023-04-01T02:46:30;95712.66;;;6.58;100.00
23616;BME280;11985;49.404;7.734;2023-04-01T02:51:33;95711.22;;;6.63;100.00
23616;BME280;11985;49.404;7.734;2023-04-01T02:56:35;95710.41;;;6.62;100.00
23616;BME280;11985;49.404;7.734;2023-04-01T03:01:36;95699.94;;;6.62;100.00
23616;BME280;11985;49.404;7.734;2023-04-01T03:06:39;95709.81;;;6.60;100.00
23616;BME280;11985;49.404;7.734;2023-04-01T03:11:41;95690.50;;;6.61;100.00
23616;BME280;11985;49.404;7.734;2023-04-01T03:16:43;95698.34;;;6.61;100.00
23616;BME280;11985;49.404;7.734;2023-04-01T03:21:46;95705.75;;;6.64;100.00
23616;BME280;11985;49.404;7.734;2023-04-01T03:26:47;95697.91;;;6.64;100.00
23616;BME280;11985;49.404;7.734;2023-04-01T03:31:50;95697.34;;;6.62;100.00
23616;BME280;11985;49.404;7.734;2023-04-01T03:36:53;95707.19;;;6.60;100.00
23616;BME280;11985;49.404;7.734;2023-04-01T03:41:55;95696.38;;;6.56;100.00
23616;BME280;11985;49.404;7.734;2023-04-01T03:46:57;95701.97;;;6.60;100.00
23616;BME280;11985;49.404;7.734;2023-04-01T03:52:00;95684.69;;;6.59;100.00
23616;BME280;11985;49.404;7.734;2023-04-01T03:57:01;95694.56;;;6.57;100.00
23616;BME280;11985;49.404;7.734;2023-04-01T04:02:03;95691.50;;;6.60;100.00
23616;BME280;11985;49.404;7.734;2023-04-01T04:07:06;95697.47;;;6.67;100.00
23616;BME280;11985;49.404;7.734;2023-04-01T04:12:08;95682.78;;;6.66;100.00
23616;BME280;11985;49.404;7.734;2023-04-01T04:17:10;95675.94;;;6.65;100.00
23616;BME280;11985;49.404;7.734;2023-04-01T04:22:15;95696.72;;;6.60;100.00
23616;BME280;11985;49.404;7.734;2023-04-01T04:27:17;95703.16;;;6.46;100.00
23616;BME280;11985;49.404;7.734;2023-04-01T04:32:18;95716.22;;;6.46;100.00
23616;BME280;11985;49.404;7.734;2023-04-01T04:37:21;95680.81;;;6.43;100.00
23616;BME280;11985;49.404;7.734;2023-04-01T04:42:22;95687.44;;;6.46;100.00
23616;BME280;11985;49.404;7.734;2023-04-01T04:47:24;95696.88;;;6.47;100.00
23616;BME280;11985;49.404;7.734;2023-04-01T04:52:27;95693.09;;;6.43;100.00
23616;BME280;11985;49.404;7.734;2023-04-01T04:57:28;95674.47;;;6.39;100.00
23616;BME280;11985;49.404;7.734;2023-04-01T05:02:30;95681.94;;;6.35;100.00
23616;BME280;11985;49.404;7.734;2023-04-01T05:07:33;95681.56;;;6.32;100.00
23616;BME280;11985;49.404;7.734;2023-04-01T05:12:34;95680.19;;;6.29;100.00
23616;BME280;11985;49.404;7.734;2023-04-01T05:17:37;95672.72;;;6.33;100.00
23616;BME280;11985;49.404;7.734;2023-04-01T05:22:40;95684.97;;;6.32;100.00
23616;BME280;11985;49.404;7.734;2023-04-01T05:27:42;95682.06;;;6.41;100.00
23616;BME280;11985;49.404;7.734;2023-04-01T05:32:43;95689.91;;;6.41;100.00
23616;BME280;11985;49.404;7.734;2023-04-01T05:37:46;95699.44;;;6.35;100.00
23616;BME280;11985;49.404;7.734;2023-04-01T05:42:48;95683.97;;;6.33;100.00
23616;BME280;11985;49.404;7.734;2023-04-01T05:47:49;95670.75;;;6.28;100.00
23616;BME280;11985;49.404;7.734;2023-04-01T05:52:53;95663.69;;;6.29;100.00
23616;BME280;11985;49.404;7.734;2023-04-01T05:57:54;95663.31;;;6.25;100.00
23616;BME280;11985;49.404;7.734;2023-04-01T06:02:58;95665.94;;;6.25;100.00
23616;BME280;11985;49.404;7.734;2023-04-01T06:08:06;95660.47;;;6.27;100.00
23616;BME280;11985;49.404;7.734;2023-04-01T06:13:20;95674.50;;;6.32;100.00
23616;BME280;11985;49.404;7.734;2023-04-01T06:18:41;95686.94;;;6.37;100.00
23616;BME280;11985;49.404;7.734;2023-04-01T06:23:56;95681.34;;;6.33;100.00
23616;BME280;11985;49.404;7.734;2023-04-01T06:29:12;95696.59;;;6.37;100.00
23616;BME280;11985;49.404;7.734;2023-04-01T06:34:45;95684.97;;;6.32;100.00
23616;BME280;11985;49.404;7.734;2023-04-01T06:40:11;95682.94;;;6.34;100.00
23616;BME280;11985;49.404;7.734;2023-04-01T06:45:28;95687.72;;;6.38;100.00
23616;BME280;11985;49.404;7.734;2023-04-01T06:50:38;95684.69;;;6.41;100.00
23616;BME280;11985;49.404;7.734;2023-04-01T06:55:47;95687.00;;;6.49;100.00
23616;BME280;11985;49.404;7.734;2023-04-01T07:00:50;95678.41;;;6.60;100.00
23616;BME280;11985;49.404;7.734;2023-04-01T07:05:58;95674.50;;;6.69;100.00
23616;BME280;11985;49.404;7.734;2023-04-01T07:11:04;95683.38;;;6.68;100.00
23616;BME280;11985;49.404;7.734;2023-04-01T07:16:12;95681.31;;;6.70;100.00
23616;BME280;11985;49.404;7.734;2023-04-01T07:21:22;95674.94;;;6.66;100.00
23616;BME280;11985;49.404;7.734;2023-04-01T07:26:26;95684.97;;;6.69;100.00
23616;BME280;11985;49.404;7.734;2023-04-01T07:31:40;95694.19;;;6.72;100.00
23616;BME280;11985;49.404;7.734;2023-04-01T07:36:48;95702.03;;;6.72;100.00
23616;BME280;11985;49.404;7.734;2023-04-01T07:42:01;95707.41;;;6.77;100.00
23616;BME280;11985;49.404;7.734;2023-04-01T07:52:42;95720.84;;;6.80;100.00
23616;BME280;11985;49.404;7.734;2023-04-01T07:57:53;95729.88;;;6.84;100.00
23616;BME280;11985;49.404;7.734;2023-04-01T08:03:08;95730.31;;;6.81;100.00
23616;BME280;11985;49.404;7.734;2023-04-01T08:08:19;95730.31;;;6.81;100.00
23616;BME280;11985;49.404;7.734;2023-04-01T08:13:36;95723.84;;;6.84;100.00
23616;BME280;11985;49.404;7.734;2023-04-01T08:18:49;95738.28;;;6.86;100.00
23616;BME280;11985;49.404;7.734;2023-04-01T08:23:55;95740.03;;;6.93;100.00
23616;BME280;11985;49.404;7.734;2023-04-01T08:29:02;95747.00;;;6.99;100.00
23616;BME280;11985;49.404;7.734;2023-04-01T08:34:11;95745.69;;;7.08;100.00
23616;BME280;11985;49.404;7.734;2023-04-01T08:39:18;95745.84;;;7.13;100.00
23616;BME280;11985;49.404;7.734;2023-04-01T08:44:37;95759.22;;;7.23;100.00
23616;BME280;11985;49.404;7.734;2023-04-01T08:49:56;95748.72;;;7.23;100.00
23616;BME280;11985;49.404;7.734;2023-04-01T08:55:25;95756.13;;;7.26;100.00
23616;BME280;11985;49.404;7.734;2023-04-01T09:00:32;95761.38;;;7.26;100.00
23616;BME280;11985;49.404;7.734;2023-04-01T09:05:40;95759.25;;;7.35;100.00
23616;BME280;11985;49.404;7.734;2023-04-01T09:11:08;95753.34;;;7.39;100.00
23616;BME280;11985;49.404;7.734;2023-04-01T09:16:30;95774.72;;;7.36;100.00
23616;BME280;11985;49.404;7.734;2023-04-01T09:27:03;95783.38;;;7.37;100.00
23616;BME280;11985;49.404;7.734;2023-04-01T09:32:20;95776.78;;;7.34;100.00
23616;BME280;11985;49.404;7.734;2023-04-01T09:37:34;95779.53;;;7.39;100.00
23616;BME280;11985;49.404;7.734;2023-04-01T09:42:43;95791.63;;;7.40;100.00
23616;BME280;11985;49.404;7.734;2023-04-01T09:47:55;95782.22;;;7.51;100.00
23616;BME280;11985;49.404;7.734;2023-04-01T09:53:13;95777.91;;;7.57;100.00
23616;BME280;11985;49.404;7.734;2023-04-01T09:58:34;95782.00;;;7.64;100.00
23616;BME280;11985;49.404;7.734;2023-04-01T10:21:16;95805.28;;;7.73;100.00
23616;BME280;11985;49.404;7.734;2023-04-01T10:26:35;95804.84;;;7.76;100.00
23616;BME280;11985;49.404;7.734;2023-04-01T10:32:14;95803.41;;;7.91;100.00
23616;BME280;11985;49.404;7.734;2023-04-01T10:37:46;95799.97;;;7.91;100.00
23616;BME280;11985;49.404;7.734;2023-04-01T10:49:04;95807.22;;;7.77;100.00
23616;BME280;11985;49.404;7.734;2023-04-01T10:54:40;95806.13;;;7.85;100.00
23616;BME280;11985;49.404;7.734;2023-04-01T11:00:07;95810.50;;;8.03;100.00
23616;BME280;11985;49.404;7.734;2023-04-01T11:11:23;95816.34;;;8.16;100.00
23616;BME280;11985;49.404;7.734;2023-04-01T11:16:56;95821.38;;;8.18;100.00
23616;BME280;11985;49.404;7.734;2023-04-01T11:22:21;95836.50;;;8.16;100.00
23616;BME280;11985;49.404;7.734;2023-04-01T11:27:46;95829.00;;;8.31;100.00
23616;BME280;11985;49.404;7.734;2023-04-01T11:32:57;95837.78;;;8.25;100.00
23616;BME280;11985;49.404;7.734;2023-04-01T11:38:14;95833.53;;;8.01;100.00
23616;BME280;11985;49.404;7.734;2023-04-01T11:43:24;95849.03;;;8.02;100.00
23616;BME280;11985;49.404;7.734;2023-04-01T11:48:38;95845.25;;;7.98;100.00
23616;BME280;11985;49.404;7.734;2023-04-01T11:53:47;95838.03;;;7.93;100.00
23616;BME280;11985;49.404;7.734;2023-04-01T11:59:05;95869.72;;;7.92;100.00
23616;BME280;11985;49.404;7.734;2023-04-01T12:04:29;95863.56;;;7.86;100.00
23616;BME280;11985;49.404;7.734;2023-04-01T12:09:38;95869.84;;;7.85;100.00
23616;BME280;11985;49.404;7.734;2023-04-01T12:14:47;95881.94;;;7.98;100.00
23616;BME280;11985;49.404;7.734;2023-04-01T12:19:59;95881.84;;;8.05;100.00
23616;BME280;11985;49.404;7.734;2023-04-01T12:30:54;95880.16;;;8.10;100.00
23616;BME280;11985;49.404;7.734;2023-04-01T12:36:10;95895.31;;;8.08;100.00
23616;BME280;11985;49.404;7.734;2023-04-01T12:41:22;95886.22;;;8.11;100.00
23616;BME280;11985;49.404;7.734;2023-04-01T12:46:32;95890.31;;;8.07;100.00
23616;BME280;11985;49.404;7.734;2023-04-01T12:51:49;95901.41;;;8.20;100.00
23616;BME280;11985;49.404;7.734;2023-04-01T12:57:06;95891.72;;;8.21;100.00
23616;BME280;11985;49.404;7.734;2023-04-01T13:02:21;95901.75;;;8.24;100.00
23616;BME280;11985;49.404;7.734;2023-04-01T13:18:51;95912.25;;;8.24;100.00
23616;BME280;11985;49.404;7.734;2023-04-01T13:24:03;95920.69;;;8.26;100.00
23616;BME280;11985;49.404;7.734;2023-04-01T13:29:17;95927.47;;;8.34;100.00
23616;BME280;11985;49.404;7.734;2023-04-01T13:34:32;95935.09;;;8.35;100.00
23616;BME280;11985;49.404;7.734;2023-04-01T13:39:46;95940.53;;;8.22;100.00
23616;BME280;11985;49.404;7.734;2023-04-01T13:44:56;95940.69;;;8.09;100.00
23616;BME280;11985;49.404;7.734;2023-04-01T13:50:25;95937.50;;;8.07;100.00
23616;BME280;11985;49.404;7.734;2023-04-01T13:55:53;95937.41;;;8.13;100.00
23616;BME280;11985;49.404;7.734;2023-04-01T14:01:05;95937.84;;;8.10;100.00
23616;BME280;11985;49.404;7.734;2023-04-01T14:06:16;95941.16;;;8.06;100.00
23616;BME280;11985;49.404;7.734;2023-04-01T14:11:24;95948.28;;;8.17;100.00
23616;BME280;11985;49.404;7.734;2023-04-01T14:16:54;95934.28;;;8.05;100.00
23616;BME280;11985;49.404;7.734;2023-04-01T14:22:05;95950.41;;;8.08;100.00
23616;BME280;11985;49.404;7.734;2023-04-01T14:27:31;95962.84;;;8.13;100.00
23616;BME280;11985;49.404;7.734;2023-04-01T14:32:46;95959.44;;;8.42;100.00
23616;BME280;11985;49.404;7.734;2023-04-01T14:43:51;95972.47;;;8.49;100.00
23616;BME280;11985;49.404;7.734;2023-04-01T14:48:59;95982.41;;;8.29;100.00
23616;BME280;11985;49.404;7.734;2023-04-01T14:54:06;95990.94;;;8.24;100.00
23616;BME280;11985;49.404;7.734;2023-04-01T14:59:14;95985.56;;;8.19;100.00
23616;BME280;11985;49.404;7.734;2023-04-01T15:04:43;95980.13;;;8.32;100.00
23616;BME280;11985;49.404;7.734;2023-04-01T15:09:52;95987.97;;;8.39;100.00
23616;BME280;11985;49.404;7.734;2023-04-01T15:15:15;95982.75;;;8.32;100.00
23616;BME280;11985;49.404;7.734;2023-04-01T15:26:20;96000.69;;;8.05;100.00
23616;BME280;11985;49.404;7.734;2023-04-01T15:31:27;96001.66;;;8.04;100.00
23616;BME280;11985;49.404;7.734;2023-04-01T15:36:41;96018.06;;;8.18;100.00
23616;BME280;11985;49.404;7.734;2023-04-01T15:41:55;96006.41;;;8.14;100.00
23616;BME280;11985;49.404;7.734;2023-04-01T15:47:00;96012.44;;;8.14;100.00
23616;BME280;11985;49.404;7.734;2023-04-01T15:52:14;96011.38;;;8.22;100.00
23616;BME280;11985;49.404;7.734;2023-04-01T15:57:26;96018.78;;;8.25;100.00
23616;BME280;11985;49.404;7.734;2023-04-01T16:02:32;96027.00;;;8.29;100.00
23616;BME280;11985;49.404;7.734;2023-04-01T16:07:53;96029.91;;;8.20;100.00
23616;BME280;11985;49.404;7.734;2023-04-01T16:13:04;96030.44;;;8.29;100.00
23616;BME280;11985;49.404;7.734;2023-04-01T16:18:34;96054.84;;;8.48;100.00
23616;BME280;11985;49.404;7.734;2023-04-01T16:23:49;96051.66;;;8.28;100.00
23616;BME280;11985;49.404;7.734;2023-04-01T16:28:54;96058.44;;;8.17;100.00
23616;BME280;11985;49.404;7.734;2023-04-01T16:34:02;96062.06;;;8.16;100.00
23616;BME280;11985;49.404;7.734;2023-04-01T16:39:29;96062.50;;;8.13;100.00
23616;BME280;11985;49.404;7.734;2023-04-01T16:44:46;96068.97;;;7.92;100.00
23616;BME280;11985;49.404;7.734;2023-04-01T16:49:52;96075.88;;;7.68;100.00
23616;BME280;11985;49.404;7.734;2023-04-01T16:55:02;96075.88;;;7.68;100.00
23616;BME280;11985;49.404;7.734;2023-04-01T17:00:17;96077.53;;;7.62;100.00
23616;BME280;11985;49.404;7.734;2023-04-01T17:05:40;96080.75;;;7.64;100.00
23616;BME280;11985;49.404;7.734;2023-04-01T17:10:50;96091.28;;;7.58;100.00
23616;BME280;11985;49.404;7.734;2023-04-01T17:16:01;96073.66;;;7.47;100.00
23616;BME280;11985;49.404;7.734;2023-04-01T17:21:10;96079.75;;;7.40;100.00
23616;BME280;11985;49.404;7.734;2023-04-01T17:26:20;96081.78;;;7.38;100.00
23616;BME280;11985;49.404;7.734;2023-04-01T17:31:44;96086.81;;;7.40;100.00
23616;BME280;11985;49.404;7.734;2023-04-01T17:36:59;96088.63;;;7.39;100.00
23616;BME280;11985;49.404;7.734;2023-04-01T17:42:07;96093.81;;;7.46;100.00
23616;BME280;11985;49.404;7.734;2023-04-01T17:47:23;96100.22;;;7.50;100.00
23616;BME280;11985;49.404;7.734;2023-04-01T17:52:30;96113.75;;;7.47;100.00
23616;BME280;11985;49.404;7.734;2023-04-01T17:57:46;96120.81;;;7.47;100.00
23616;BME280;11985;49.404;7.734;2023-04-01T18:02:54;96116.44;;;7.40;100.00
23616;BME280;11985;49.404;7.734;2023-04-01T18:08:13;96122.06;;;7.37;100.00
23616;BME280;11985;49.404;7.734;2023-04-01T18:13:43;96138.00;;;7.36;100.00
23616;BME280;11985;49.404;7.734;2023-04-01T18:18:57;96144.50;;;7.33;100.00
23616;BME280;11985;49.404;7.734;2023-04-01T18:24:06;96154.81;;;7.28;100.00
23616;BME280;11985;49.404;7.734;2023-04-01T18:29:24;96154.19;;;7.26;100.00
23616;BME280;11985;49.404;7.734;2023-04-01T18:34:41;96161.84;;;7.28;100.00
23616;BME280;11985;49.404;7.734;2023-04-01T18:39:49;96173.72;;;7.30;100.00
23616;BME280;11985;49.404;7.734;2023-04-01T18:44:57;96187.53;;;7.44;100.00
23616;BME280;11985;49.404;7.734;2023-04-01T18:50:07;96192.16;;;7.42;100.00
23616;BME280;11985;49.404;7.734;2023-04-01T18:55:24;96204.06;;;7.38;100.00
23616;BME280;11985;49.404;7.734;2023-04-01T19:00:35;96209.53;;;7.36;100.00
23616;BME280;11985;49.404;7.734;2023-04-01T19:05:40;96218.81;;;7.39;100.00
23616;BME280;11985;49.404;7.734;2023-04-01T19:10:48;96222.84;;;7.35;100.00
23616;BME280;11985;49.404;7.734;2023-04-01T19:15:58;96225.50;;;7.28;100.00
23616;BME280;11985;49.404;7.734;2023-04-01T19:21:06;96234.19;;;7.29;100.00
23616;BME280;11985;49.404;7.734;2023-04-01T19:26:12;96241.63;;;7.25;100.00
23616;BME280;11985;49.404;7.734;2023-04-01T19:31:30;96243.25;;;7.26;100.00
23616;BME280;11985;49.404;7.734;2023-04-01T19:36:41;96253.13;;;7.24;100.00
23616;BME280;11985;49.404;7.734;2023-04-01T19:41:51;96256.34;;;7.26;100.00
23616;BME280;11985;49.404;7.734;2023-04-01T19:47:05;96249.66;;;7.30;100.00
23616;BME280;11985;49.404;7.734;2023-04-01T19:52:15;96250.03;;;7.40;100.00
23616;BME280;11985;49.404;7.734;2023-04-01T19:57:26;96263.13;;;7.40;100.00
23616;BME280;11985;49.404;7.734;2023-04-01T20:02:56;96264.72;;;7.41;100.00
23616;BME280;11985;49.404;7.734;2023-04-01T20:08:10;96268.75;;;7.37;100.00
23616;BME280;11985;49.404;7.734;2023-04-01T20:13:19;96274.84;;;7.31;100.00
23616;BME280;11985;49.404;7.734;2023-04-01T20:18:27;96281.34;;;7.22;100.00
23616;BME280;11985;49.404;7.734;2023-04-01T20:23:39;96293.44;;;7.23;100.00
23616;BME280;11985;49.404;7.734;2023-04-01T20:28:47;96288.84;;;7.12;100.00
23616;BME280;11985;49.404;7.734;2023-04-01T20:34:14;96288.22;;;7.10;100.00
23616;BME280;11985;49.404;7.734;2023-04-01T20:39:57;96295.09;;;7.04;100.00
23616;BME280;11985;49.404;7.734;2023-04-01T20:45:17;96298.34;;;7.00;100.00
23616;BME280;11985;49.404;7.734;2023-04-01T20:50:28;96308.84;;;7.00;100.00
23616;BME280;11985;49.404;7.734;2023-04-01T20:55:53;96306.38;;;7.11;100.00
23616;BME280;11985;49.404;7.734;2023-04-01T21:01:07;96306.56;;;7.17;100.00
23616;BME280;11985;49.404;7.734;2023-04-01T21:06:25;96313.19;;;7.19;100.00
23616;BME280;11985;49.404;7.734;2023-04-01T21:11:36;96318.22;;;7.14;100.00
23616;BME280;11985;49.404;7.734;2023-04-01T21:16:44;96320.06;;;7.07;100.00
23616;BME280;11985;49.404;7.734;2023-04-01T21:22:11;96322.56;;;6.88;100.00
23616;BME280;11985;49.404;7.734;2023-04-01T21:27:28;96327.78;;;6.88;100.00
23616;BME280;11985;49.404;7.734;2023-04-01T21:32:37;96330.63;;;6.80;100.00
23616;BME280;11985;49.404;7.734;2023-04-01T21:38:00;96333.00;;;6.82;100.00
23616;BME280;11985;49.404;7.734;2023-04-01T21:43:17;96335.44;;;6.83;100.00
23616;BME280;11985;49.404;7.734;2023-04-01T21:48:44;96345.50;;;6.80;100.00
23616;BME280;11985;49.404;7.734;2023-04-01T21:54:12;96346.09;;;6.82;100.00
23616;BME280;11985;49.404;7.734;2023-04-01T22:05:02;96359.19;;;6.88;100.00
23616;BME280;11985;49.404;7.734;2023-04-01T22:10:19;96366.84;;;6.83;100.00
23616;BME280;11985;49.404;7.734;2023-04-01T22:15:40;96370.06;;;6.85;100.00
23616;BME280;11985;49.404;7.734;2023-04-01T22:20:48;96371.28;;;6.90;100.00
23616;BME280;11985;49.404;7.734;2023-04-01T22:25:56;96374.91;;;6.88;100.00
23616;BME280;11985;49.404;7.734;2023-04-01T22:31:03;96379.31;;;6.88;100.00
23616;BME280;11985;49.404;7.734;2023-04-01T22:36:12;96380.53;;;6.85;100.00
23616;BME280;11985;49.404;7.734;2023-04-01T22:41:25;96380.13;;;6.88;100.00
23616;BME280;11985;49.404;7.734;2023-04-01T22:46:42;96388.19;;;6.87;100.00
23616;BME280;11985;49.404;7.734;2023-04-01T22:51:48;96399.88;;;6.84;100.00
23616;BME280;11985;49.404;7.734;2023-04-01T22:56:54;96398.25;;;6.83;100.00
23616;BME280;11985;49.404;7.734;2023-04-01T23:02:00;96398.25;;;6.77;100.00
23616;BME280;11985;49.404;7.734;2023-04-01T23:07:19;96398.06;;;6.65;100.00
23616;BME280;11985;49.404;7.734;2023-04-01T23:12:27;96406.31;;;6.62;100.00
23616;BME280;11985;49.404;7.734;2023-04-01T23:18:00;96403.88;;;6.60;100.00
23616;BME280;11985;49.404;7.734;2023-04-01T23:23:19;96399.06;;;6.64;100.00
23616;BME280;11985;49.404;7.734;2023-04-01T23:28:47;96412.16;;;6.57;100.00
23616;BME280;11985;49.404;7.734;2023-04-01T23:33:53;96415.56;;;6.58;100.00
23616;BME280;11985;49.404;7.734;2023-04-01T23:38:55;96414.34;;;6.54;100.00
23616;BME280;11985;49.404;7.734;2023-04-01T23:44:02;96418.19;;;6.51;100.00
23616;BME280;11985;49.404;7.734;2023-04-01T23:49:06;96411.75;;;6.54;100.00
23616;BME280;11985;49.404;7.734;2023-04-01T23:54:14;96423.22;;;6.53;100.00
23616;BME280;11985;49.404;7.734;2023-04-01T23:59:23;96426.44;;;6.55;100.00
